Shymkent, Kazakhstan
Current Conditions -  °F | °C
As of 7:30 AM on Wednesday 22 Oct 2014 (Local Time) from UAII Reporting Station
Haze Haze  
Wind Chill: 46°   Ceiling: Unl
Heat Index: 48°   Visibility: 3mi
Dew Point: 45°   Wind: 4mph
Humidity: 87%   Direction: 130°SE
Pressure: 30"   Gusts: NA
Location:  42.32°N, 69.59°E
Report Text: UAII 220130Z 13002MPS 5000 BR NSC 09/07 Q1016 R28/0///70 NOSIGRMK QFE725/0966
Loading
Personal Weather Stations






























Interactive Weather Map
Tropical Storm Tracking
New forecast layout! Learn more

10-Day Weather Forecast

Advertisements
Track Severe Weather on mobile